Aérodrome :
LOGIN :

S'inscrire | Disclaimer

   EN    FR    IT 

 










Légende :    VFR   VFR Marginal   IFR   IFR Intensif   IFR Très Intensif
Visi : 
Plafond : 
>= 8 km
>= 3000ft
5 à 8 km
1000 à 3000 ft
1500m à 5 km
500 à 1000 ft
800 à 1500m
200 à 500 ft
< 800m
< 200 ft
Symboles :   Orages  Brouillard  Fortes neiges  Fortes précipitations  Vent > 20 kt
SIGMETs :   Divers  Orages  Givrage  Turbulence  Onde Orograph.  Cendres Volcan.







- Altitude de l'aérodrome : 505 ft
- Code IATA : SXB
- Voir les cartes d'approche


LFST - Strasbourg

DERNIER METAR :
  • 241000Z AUTO 28011KT 250V320 9999 FEW052 25/12 Q1019 NOSIG

METARs EXPIRÉS :
  • 240930Z AUTO 26013KT 230V290 9999 FEW052 25/12 Q1019 NOSIG
  • 240900Z AUTO 26013KT 230V290 9999 FEW050 24/13 Q1019 NOSIG
  • 240830Z AUTO 27012KT 220V310 9999 FEW042 BKN052 23/13 Q1019 NOSIG
  • 240800Z AUTO 29006KT 240V010 9999 BKN052 23/14 Q1019 NOSIG
  • 240730Z AUTO 29005KT 260V340 9999 BKN052 23/14 Q1020 NOSIG

TAF TAF LFST
Valide du 23 à 18h jusqu'au 24 à 18h UTC


231700Z 2318/2418 27015KT CAVOK
BECMG 2318/2321 28005KT
Pas de NOTAMs connus pour ce terrain.



MET'MAP, la Météo Aéronautique d'un coup d'oeil ! - Copyright ORBIFLY Décembre 2007 - Disclaimer

ORBIFLY MET'MAP TEAM :

Programmation & Développement : Alexandra Zaïnal
Conception & Développement : Baudouin d'Aumeries
Co-Programmation & Développement : Marc-Olivier Méhu
Soutien technique & logistique : Manuel Goepfert

Contact : metmap@orbifly.com




SOURCES & CREDITS :

   NOAA